sensor_id;sensor_type;location;lat;lon;timestamp;P1;durP1;ratioP1;P2;durP2;ratioP2
15254;SDS011;7730;49.610;11.136;2023-03-05T00:01:11;20.40;;;12.13;;
15254;SDS011;7730;49.610;11.136;2023-03-05T00:03:38;20.60;;;11.30;;
15254;SDS011;7730;49.610;11.136;2023-03-05T00:06:06;21.83;;;12.47;;
15254;SDS011;7730;49.610;11.136;2023-03-05T00:08:33;23.13;;;12.60;;
15254;SDS011;7730;49.610;11.136;2023-03-05T00:11:00;20.27;;;12.13;;
15254;SDS011;7730;49.610;11.136;2023-03-05T00:13:28;21.65;;;12.18;;
15254;SDS011;7730;49.610;11.136;2023-03-05T00:15:56;22.60;;;13.03;;
15254;SDS011;7730;49.610;11.136;2023-03-05T00:18:24;22.30;;;12.90;;
15254;SDS011;7730;49.610;11.136;2023-03-05T00:20:51;22.25;;;12.20;;
15254;SDS011;7730;49.610;11.136;2023-03-05T00:23:18;21.90;;;12.63;;
15254;SDS011;7730;49.610;11.136;2023-03-05T00:25:45;21.00;;;12.40;;
15254;SDS011;7730;49.610;11.136;2023-03-05T00:28:12;20.58;;;12.90;;
15254;SDS011;7730;49.610;11.136;2023-03-05T00:30:39;22.70;;;13.30;;
15254;SDS011;7730;49.610;11.136;2023-03-05T00:33:08;20.13;;;12.80;;
15254;SDS011;7730;49.610;11.136;2023-03-05T00:35:39;24.37;;;12.80;;
15254;SDS011;7730;49.610;11.136;2023-03-05T00:38:07;20.90;;;12.52;;
15254;SDS011;7730;49.610;11.136;2023-03-05T00:40:35;22.20;;;13.53;;
15254;SDS011;7730;49.610;11.136;2023-03-05T00:43:02;22.05;;;13.23;;
15254;SDS011;7730;49.610;11.136;2023-03-05T00:45:29;22.90;;;13.00;;
15254;SDS011;7730;49.610;11.136;2023-03-05T00:47:56;20.10;;;12.20;;
15254;SDS011;7730;49.610;11.136;2023-03-05T00:50:25;21.93;;;13.73;;
15254;SDS011;7730;49.610;11.136;2023-03-05T00:52:53;23.50;;;13.00;;
15254;SDS011;7730;49.610;11.136;2023-03-05T00:55:20;22.60;;;13.67;;
15254;SDS011;7730;49.610;11.136;2023-03-05T00:57:47;22.87;;;13.30;;
15254;SDS011;7730;49.610;11.136;2023-03-05T01:00:14;21.55;;;13.00;;
15254;SDS011;7730;49.610;11.136;2023-03-05T01:02:42;23.20;;;13.73;;
15254;SDS011;7730;49.610;11.136;2023-03-05T01:05:09;22.53;;;13.27;;
15254;SDS011;7730;49.610;11.136;2023-03-05T01:07:38;23.83;;;14.43;;
15254;SDS011;7730;49.610;11.136;2023-03-05T01:10:06;22.90;;;13.83;;
15254;SDS011;7730;49.610;11.136;2023-03-05T01:12:33;22.93;;;14.23;;
15254;SDS011;7730;49.610;11.136;2023-03-05T01:15:01;23.25;;;13.60;;
15254;SDS011;7730;49.610;11.136;2023-03-05T01:17:28;23.10;;;13.43;;
15254;SDS011;7730;49.610;11.136;2023-03-05T01:19:55;22.37;;;13.17;;
15254;SDS011;7730;49.610;11.136;2023-03-05T01:22:22;20.47;;;13.33;;
15254;SDS011;7730;49.610;11.136;2023-03-05T01:24:50;22.00;;;12.50;;
15254;SDS011;7730;49.610;11.136;2023-03-05T01:27:17;23.83;;;13.50;;
15254;SDS011;7730;49.610;11.136;2023-03-05T01:29:44;22.52;;;13.95;;
15254;SDS011;7730;49.610;11.136;2023-03-05T01:32:11;22.23;;;13.87;;
15254;SDS011;7730;49.610;11.136;2023-03-05T01:34:38;22.57;;;13.97;;
15254;SDS011;7730;49.610;11.136;2023-03-05T01:37:06;22.20;;;13.73;;
15254;SDS011;7730;49.610;11.136;2023-03-05T01:39:33;22.33;;;13.60;;
15254;SDS011;7730;49.610;11.136;2023-03-05T01:42:02;22.77;;;13.03;;
15254;SDS011;7730;49.610;11.136;2023-03-05T01:44:29;22.20;;;13.63;;
15254;SDS011;7730;49.610;11.136;2023-03-05T01:46:56;24.63;;;13.70;;
15254;SDS011;7730;49.610;11.136;2023-03-05T01:49:23;22.93;;;13.90;;
15254;SDS011;7730;49.610;11.136;2023-03-05T01:51:56;22.67;;;14.13;;
15254;SDS011;7730;49.610;11.136;2023-03-05T01:54:25;21.77;;;13.70;;
15254;SDS011;7730;49.610;11.136;2023-03-05T01:56:55;23.93;;;14.03;;
15254;SDS011;7730;49.610;11.136;2023-03-05T01:59:24;26.30;;;14.57;;
15254;SDS011;7730;49.610;11.136;2023-03-05T02:01:53;22.83;;;14.10;;
15254;SDS011;7730;49.610;11.136;2023-03-05T02:04:22;23.73;;;14.70;;
15254;SDS011;7730;49.610;11.136;2023-03-05T02:06:51;25.63;;;14.97;;
15254;SDS011;7730;49.610;11.136;2023-03-05T02:09:18;23.20;;;14.18;;
15254;SDS011;7730;49.610;11.136;2023-03-05T02:11:48;22.77;;;14.63;;
15254;SDS011;7730;49.610;11.136;2023-03-05T02:14:15;23.27;;;14.10;;
15254;SDS011;7730;49.610;11.136;2023-03-05T02:16:43;23.60;;;14.80;;
15254;SDS011;7730;49.610;11.136;2023-03-05T02:19:11;25.17;;;14.85;;
15254;SDS011;7730;49.610;11.136;2023-03-05T02:21:40;23.93;;;14.77;;
15254;SDS011;7730;49.610;11.136;2023-03-05T02:24:09;25.60;;;15.17;;
15254;SDS011;7730;49.610;11.136;2023-03-05T02:26:36;23.37;;;15.23;;
15254;SDS011;7730;49.610;11.136;2023-03-05T02:29:04;24.20;;;15.13;;
15254;SDS011;7730;49.610;11.136;2023-03-05T02:31:32;24.97;;;14.90;;
15254;SDS011;7730;49.610;11.136;2023-03-05T02:33:59;23.50;;;14.87;;
15254;SDS011;7730;49.610;11.136;2023-03-05T02:36:26;22.23;;;13.23;;
15254;SDS011;7730;49.610;11.136;2023-03-05T02:38:54;23.93;;;14.43;;
15254;SDS011;7730;49.610;11.136;2023-03-05T02:41:23;23.77;;;13.90;;
15254;SDS011;7730;49.610;11.136;2023-03-05T02:43:50;23.83;;;13.77;;
15254;SDS011;7730;49.610;11.136;2023-03-05T02:46:17;23.37;;;14.00;;
15254;SDS011;7730;49.610;11.136;2023-03-05T02:48:44;22.20;;;13.73;;
15254;SDS011;7730;49.610;11.136;2023-03-05T02:51:11;20.90;;;13.57;;
15254;SDS011;7730;49.610;11.136;2023-03-05T02:53:38;21.23;;;13.23;;
15254;SDS011;7730;49.610;11.136;2023-03-05T02:56:07;22.77;;;13.50;;
15254;SDS011;7730;49.610;11.136;2023-03-05T02:58:34;22.70;;;13.32;;
15254;SDS011;7730;49.610;11.136;2023-03-05T03:01:00;22.47;;;13.37;;
15254;SDS011;7730;49.610;11.136;2023-03-05T03:03:28;21.07;;;12.47;;
15254;SDS011;7730;49.610;11.136;2023-03-05T03:05:55;20.40;;;11.27;;
15254;SDS011;7730;49.610;11.136;2023-03-05T03:08:22;21.57;;;12.47;;
15254;SDS011;7730;49.610;11.136;2023-03-05T03:10:49;19.57;;;10.40;;
15254;SDS011;7730;49.610;11.136;2023-03-05T03:13:17;21.43;;;11.60;;
15254;SDS011;7730;49.610;11.136;2023-03-05T03:15:44;19.50;;;10.37;;
15254;SDS011;7730;49.610;11.136;2023-03-05T03:18:11;18.73;;;9.93;;
15254;SDS011;7730;49.610;11.136;2023-03-05T03:20:38;18.10;;;9.80;;
15254;SDS011;7730;49.610;11.136;2023-03-05T03:23:05;17.70;;;9.27;;
15254;SDS011;7730;49.610;11.136;2023-03-05T03:25:33;18.13;;;9.43;;
15254;SDS011;7730;49.610;11.136;2023-03-05T03:28:00;16.00;;;8.07;;
15254;SDS011;7730;49.610;11.136;2023-03-05T03:30:28;16.43;;;8.63;;
15254;SDS011;7730;49.610;11.136;2023-03-05T03:32:55;15.70;;;8.40;;
15254;SDS011;7730;49.610;11.136;2023-03-05T03:35:22;18.17;;;9.13;;
15254;SDS011;7730;49.610;11.136;2023-03-05T03:37:49;18.93;;;9.77;;
15254;SDS011;7730;49.610;11.136;2023-03-05T03:40:16;18.00;;;8.90;;
15254;SDS011;7730;49.610;11.136;2023-03-05T03:42:43;16.90;;;8.77;;
15254;SDS011;7730;49.610;11.136;2023-03-05T03:45:11;18.43;;;9.27;;
15254;SDS011;7730;49.610;11.136;2023-03-05T03:47:39;17.80;;;9.20;;
15254;SDS011;7730;49.610;11.136;2023-03-05T03:50:07;17.27;;;9.13;;
15254;SDS011;7730;49.610;11.136;2023-03-05T03:52:34;18.13;;;9.37;;
15254;SDS011;7730;49.610;11.136;2023-03-05T03:55:01;18.20;;;9.30;;
15254;SDS011;7730;49.610;11.136;2023-03-05T03:57:28;18.23;;;9.13;;
15254;SDS011;7730;49.610;11.136;2023-03-05T03:59:57;16.83;;;9.00;;
15254;SDS011;7730;49.610;11.136;2023-03-05T04:02:24;19.33;;;9.50;;
15254;SDS011;7730;49.610;11.136;2023-03-05T04:04:53;17.70;;;9.30;;
15254;SDS011;7730;49.610;11.136;2023-03-05T04:07:20;17.40;;;9.63;;
15254;SDS011;7730;49.610;11.136;2023-03-05T04:09:47;17.80;;;9.43;;
15254;SDS011;7730;49.610;11.136;2023-03-05T04:12:14;17.40;;;9.37;;
15254;SDS011;7730;49.610;11.136;2023-03-05T04:14:42;18.20;;;9.53;;
15254;SDS011;7730;49.610;11.136;2023-03-05T04:17:09;18.90;;;9.63;;
15254;SDS011;7730;49.610;11.136;2023-03-05T04:19:36;18.73;;;9.30;;
15254;SDS011;7730;49.610;11.136;2023-03-05T04:22:05;17.57;;;9.00;;
15254;SDS011;7730;49.610;11.136;2023-03-05T04:24:32;16.67;;;9.47;;
15254;SDS011;7730;49.610;11.136;2023-03-05T04:26:59;17.20;;;9.13;;
15254;SDS011;7730;49.610;11.136;2023-03-05T04:29:26;18.00;;;9.10;;
15254;SDS011;7730;49.610;11.136;2023-03-05T04:31:53;17.23;;;8.70;;
15254;SDS011;7730;49.610;11.136;2023-03-05T04:34:20;18.67;;;9.13;;
15254;SDS011;7730;49.610;11.136;2023-03-05T04:36:47;16.67;;;8.80;;
15254;SDS011;7730;49.610;11.136;2023-03-05T04:39:15;17.27;;;8.83;;
15254;SDS011;7730;49.610;11.136;2023-03-05T04:41:44;17.47;;;8.37;;
15254;SDS011;7730;49.610;11.136;2023-03-05T04:44:11;17.47;;;8.53;;
15254;SDS011;7730;49.610;11.136;2023-03-05T04:46:39;17.00;;;8.83;;
15254;SDS011;7730;49.610;11.136;2023-03-05T04:49:06;16.97;;;8.40;;
15254;SDS011;7730;49.610;11.136;2023-03-05T04:51:33;18.43;;;9.23;;
15254;SDS011;7730;49.610;11.136;2023-03-05T04:54:00;16.90;;;8.33;;
15254;SDS011;7730;49.610;11.136;2023-03-05T04:56:28;15.57;;;7.97;;
15254;SDS011;7730;49.610;11.136;2023-03-05T04:58:55;17.13;;;8.70;;
15254;SDS011;7730;49.610;11.136;2023-03-05T05:01:22;17.97;;;8.67;;
15254;SDS011;7730;49.610;11.136;2023-03-05T05:03:49;17.90;;;9.30;;
15254;SDS011;7730;49.610;11.136;2023-03-05T05:06:16;17.67;;;8.90;;
15254;SDS011;7730;49.610;11.136;2023-03-05T05:08:43;17.93;;;8.50;;
15254;SDS011;7730;49.610;11.136;2023-03-05T05:11:11;19.90;;;8.60;;
15254;SDS011;7730;49.610;11.136;2023-03-05T05:13:40;17.40;;;8.83;;
15254;SDS011;7730;49.610;11.136;2023-03-05T05:16:07;18.47;;;9.47;;
15254;SDS011;7730;49.610;11.136;2023-03-05T05:18:34;18.27;;;9.50;;
15254;SDS011;7730;49.610;11.136;2023-03-05T05:21:05;16.93;;;9.30;;
15254;SDS011;7730;49.610;11.136;2023-03-05T05:23:32;17.80;;;9.37;;
15254;SDS011;7730;49.610;11.136;2023-03-05T05:25:59;18.63;;;9.70;;
15254;SDS011;7730;49.610;11.136;2023-03-05T05:28:27;19.23;;;10.33;;
15254;SDS011;7730;49.610;11.136;2023-03-05T05:30:55;20.10;;;10.37;;
15254;SDS011;7730;49.610;11.136;2023-03-05T05:33:22;18.30;;;9.83;;
15254;SDS011;7730;49.610;11.136;2023-03-05T05:35:50;20.13;;;10.53;;
15254;SDS011;7730;49.610;11.136;2023-03-05T05:38:17;20.03;;;10.63;;
15254;SDS011;7730;49.610;11.136;2023-03-05T05:40:44;20.27;;;11.30;;
15254;SDS011;7730;49.610;11.136;2023-03-05T05:43:11;20.90;;;11.27;;
15254;SDS011;7730;49.610;11.136;2023-03-05T05:45:38;20.80;;;11.70;;
15254;SDS011;7730;49.610;11.136;2023-03-05T05:48:06;20.83;;;11.30;;
15254;SDS011;7730;49.610;11.136;2023-03-05T05:50:33;20.67;;;11.87;;
15254;SDS011;7730;49.610;11.136;2023-03-05T05:53:00;21.40;;;12.20;;
15254;SDS011;7730;49.610;11.136;2023-03-05T05:55:27;20.53;;;12.17;;
15254;SDS011;7730;49.610;11.136;2023-03-05T05:57:55;20.80;;;12.73;;
15254;SDS011;7730;49.610;11.136;2023-03-05T06:00:22;21.77;;;12.83;;
15254;SDS011;7730;49.610;11.136;2023-03-05T06:02:49;23.43;;;13.47;;
15254;SDS011;7730;49.610;11.136;2023-03-05T06:05:17;22.33;;;12.80;;
15254;SDS011;7730;49.610;11.136;2023-03-05T06:07:44;21.77;;;13.30;;
15254;SDS011;7730;49.610;11.136;2023-03-05T06:10:11;22.97;;;13.67;;
15254;SDS011;7730;49.610;11.136;2023-03-05T06:12:38;22.83;;;13.53;;
15254;SDS011;7730;49.610;11.136;2023-03-05T06:15:06;22.37;;;13.23;;
15254;SDS011;7730;49.610;11.136;2023-03-05T06:17:33;22.00;;;12.77;;
15254;SDS011;7730;49.610;11.136;2023-03-05T06:20:00;21.07;;;12.30;;
15254;SDS011;7730;49.610;11.136;2023-03-05T06:22:29;22.48;;;12.98;;
15254;SDS011;7730;49.610;11.136;2023-03-05T06:24:56;22.87;;;13.10;;
15254;SDS011;7730;49.610;11.136;2023-03-05T06:27:23;20.63;;;12.37;;
15254;SDS011;7730;49.610;11.136;2023-03-05T06:29:51;21.13;;;12.80;;
15254;SDS011;7730;49.610;11.136;2023-03-05T06:32:18;23.60;;;12.07;;
15254;SDS011;7730;49.610;11.136;2023-03-05T06:34:45;22.27;;;13.07;;
15254;SDS011;7730;49.610;11.136;2023-03-05T06:37:12;23.13;;;13.43;;
15254;SDS011;7730;49.610;11.136;2023-03-05T06:39:40;22.03;;;13.00;;
15254;SDS011;7730;49.610;11.136;2023-03-05T06:42:07;22.20;;;12.90;;
15254;SDS011;7730;49.610;11.136;2023-03-05T06:44:36;23.73;;;12.93;;
15254;SDS011;7730;49.610;11.136;2023-03-05T06:47:03;22.40;;;12.50;;
15254;SDS011;7730;49.610;11.136;2023-03-05T06:49:31;22.70;;;12.60;;
15254;SDS011;7730;49.610;11.136;2023-03-05T06:51:58;20.77;;;12.03;;
15254;SDS011;7730;49.610;11.136;2023-03-05T06:54:25;20.00;;;11.60;;
15254;SDS011;7730;49.610;11.136;2023-03-05T06:56:53;19.50;;;10.07;;
15254;SDS011;7730;49.610;11.136;2023-03-05T06:59:20;18.47;;;10.00;;
15254;SDS011;7730;49.610;11.136;2023-03-05T07:01:47;17.63;;;9.47;;
15254;SDS011;7730;49.610;11.136;2023-03-05T07:04:15;17.63;;;8.90;;
15254;SDS011;7730;49.610;11.136;2023-03-05T07:06:42;18.87;;;10.07;;
15254;SDS011;7730;49.610;11.136;2023-03-05T07:09:10;17.90;;;9.90;;
15254;SDS011;7730;49.610;11.136;2023-03-05T07:11:38;18.67;;;10.17;;
15254;SDS011;7730;49.610;11.136;2023-03-05T07:14:07;17.77;;;10.03;;
15254;SDS011;7730;49.610;11.136;2023-03-05T07:16:34;19.23;;;10.50;;
15254;SDS011;7730;49.610;11.136;2023-03-05T07:19:02;18.90;;;10.23;;
15254;SDS011;7730;49.610;11.136;2023-03-05T07:21:30;19.43;;;10.50;;
15254;SDS011;7730;49.610;11.136;2023-03-05T07:23:58;21.67;;;11.57;;
15254;SDS011;7730;49.610;11.136;2023-03-05T07:26:25;20.67;;;12.63;;
15254;SDS011;7730;49.610;11.136;2023-03-05T07:28:53;22.00;;;13.80;;
15254;SDS011;7730;49.610;11.136;2023-03-05T07:31:22;22.10;;;13.20;;
15254;SDS011;7730;49.610;11.136;2023-03-05T07:33:51;22.20;;;13.20;;
15254;SDS011;7730;49.610;11.136;2023-03-05T07:36:18;21.73;;;13.40;;
15254;SDS011;7730;49.610;11.136;2023-03-05T07:38:45;23.00;;;13.47;;
15254;SDS011;7730;49.610;11.136;2023-03-05T07:41:12;23.80;;;14.30;;
15254;SDS011;7730;49.610;11.136;2023-03-05T07:43:43;23.73;;;14.27;;
15254;SDS011;7730;49.610;11.136;2023-03-05T07:46:11;23.83;;;14.37;;
15254;SDS011;7730;49.610;11.136;2023-03-05T07:48:40;24.13;;;14.13;;
15254;SDS011;7730;49.610;11.136;2023-03-05T07:51:09;24.00;;;14.10;;
15254;SDS011;7730;49.610;11.136;2023-03-05T07:53:36;23.47;;;13.83;;
15254;SDS011;7730;49.610;11.136;2023-03-05T07:56:03;23.27;;;13.20;;
15254;SDS011;7730;49.610;11.136;2023-03-05T07:58:31;21.70;;;12.80;;
15254;SDS011;7730;49.610;11.136;2023-03-05T08:00:58;21.60;;;12.70;;
15254;SDS011;7730;49.610;11.136;2023-03-05T08:03:25;22.13;;;12.87;;
15254;SDS011;7730;49.610;11.136;2023-03-05T08:05:53;21.70;;;11.83;;
15254;SDS011;7730;49.610;11.136;2023-03-05T08:08:20;21.03;;;11.37;;
15254;SDS011;7730;49.610;11.136;2023-03-05T08:10:47;21.73;;;12.00;;
15254;SDS011;7730;49.610;11.136;2023-03-05T08:13:14;20.83;;;11.87;;
15254;SDS011;7730;49.610;11.136;2023-03-05T08:15:41;19.60;;;10.97;;
15254;SDS011;7730;49.610;11.136;2023-03-05T08:18:08;21.52;;;11.10;;
15254;SDS011;7730;49.610;11.136;2023-03-05T08:20:37;20.33;;;10.40;;
15254;SDS011;7730;49.610;11.136;2023-03-05T08:23:06;18.93;;;9.57;;
15254;SDS011;7730;49.610;11.136;2023-03-05T08:25:33;19.20;;;10.40;;
15254;SDS011;7730;49.610;11.136;2023-03-05T08:28:00;19.43;;;10.10;;
15254;SDS011;7730;49.610;11.136;2023-03-05T08:30:27;19.00;;;10.30;;
15254;SDS011;7730;49.610;11.136;2023-03-05T08:32:54;18.57;;;9.63;;
15254;SDS011;7730;49.610;11.136;2023-03-05T08:35:22;20.23;;;10.60;;
15254;SDS011;7730;49.610;11.136;2023-03-05T08:37:49;18.27;;;9.00;;
15254;SDS011;7730;49.610;11.136;2023-03-05T08:40:18;20.10;;;10.07;;
15254;SDS011;7730;49.610;11.136;2023-03-05T08:42:45;17.07;;;8.60;;
15254;SDS011;7730;49.610;11.136;2023-03-05T08:45:12;16.27;;;8.10;;
15254;SDS011;7730;49.610;11.136;2023-03-05T08:47:39;18.30;;;8.37;;
15254;SDS011;7730;49.610;11.136;2023-03-05T08:50:07;15.87;;;8.10;;
15254;SDS011;7730;49.610;11.136;2023-03-05T08:52:34;16.80;;;8.43;;
15254;SDS011;7730;49.610;11.136;2023-03-05T08:55:01;14.87;;;6.30;;
15254;SDS011;7730;49.610;11.136;2023-03-05T08:57:29;13.87;;;5.63;;
15254;SDS011;7730;49.610;11.136;2023-03-05T08:59:56;14.80;;;6.10;;
15254;SDS011;7730;49.610;11.136;2023-03-05T09:02:23;13.50;;;5.47;;
15254;SDS011;7730;49.610;11.136;2023-03-05T09:04:50;11.83;;;4.50;;
15254;SDS011;7730;49.610;11.136;2023-03-05T09:07:17;12.60;;;4.10;;
15254;SDS011;7730;49.610;11.136;2023-03-05T09:09:44;13.20;;;4.60;;
15254;SDS011;7730;49.610;11.136;2023-03-05T09:12:11;12.47;;;4.33;;
15254;SDS011;7730;49.610;11.136;2023-03-05T09:14:41;12.63;;;4.60;;
15254;SDS011;7730;49.610;11.136;2023-03-05T09:17:11;13.30;;;4.30;;
15254;SDS011;7730;49.610;11.136;2023-03-05T09:19:38;10.53;;;4.00;;
15254;SDS011;7730;49.610;11.136;2023-03-05T09:22:05;12.57;;;3.93;;
15254;SDS011;7730;49.610;11.136;2023-03-05T09:24:32;11.70;;;4.13;;
15254;SDS011;7730;49.610;11.136;2023-03-05T09:26:59;13.10;;;4.23;;
15254;SDS011;7730;49.610;11.136;2023-03-05T09:29:26;12.17;;;4.30;;
15254;SDS011;7730;49.610;11.136;2023-03-05T09:31:56;11.03;;;4.00;;
15254;SDS011;7730;49.610;11.136;2023-03-05T09:34:26;12.47;;;4.40;;
15254;SDS011;7730;49.610;11.136;2023-03-05T09:36:53;12.67;;;4.17;;
15254;SDS011;7730;49.610;11.136;2023-03-05T09:39:20;10.90;;;3.92;;
15254;SDS011;7730;49.610;11.136;2023-03-05T09:41:56;11.20;;;3.90;;
15254;SDS011;7730;49.610;11.136;2023-03-05T09:44:29;12.57;;;4.47;;
15254;SDS011;7730;49.610;11.136;2023-03-05T09:47:06;11.80;;;4.10;;
15254;SDS011;7730;49.610;11.136;2023-03-05T09:49:38;10.70;;;3.83;;
15254;SDS011;7730;49.610;11.136;2023-03-05T09:52:10;10.15;;;3.88;;
15254;SDS011;7730;49.610;11.136;2023-03-05T09:54:40;11.10;;;3.60;;
15254;SDS011;7730;49.610;11.136;2023-03-05T09:57:11;11.03;;;3.60;;
15254;SDS011;7730;49.610;11.136;2023-03-05T09:59:42;10.60;;;3.63;;
15254;SDS011;7730;49.610;11.136;2023-03-05T10:02:14;7.40;;;3.07;;
15254;SDS011;7730;49.610;11.136;2023-03-05T10:04:44;8.37;;;3.23;;
15254;SDS011;7730;49.610;11.136;2023-03-05T10:07:14;10.40;;;3.50;;
15254;SDS011;7730;49.610;11.136;2023-03-05T10:09:43;10.43;;;3.40;;
15254;SDS011;7730;49.610;11.136;2023-03-05T10:12:13;9.93;;;3.10;;
15254;SDS011;7730;49.610;11.136;2023-03-05T10:14:42;8.73;;;2.90;;
15254;SDS011;7730;49.610;11.136;2023-03-05T10:19:59;8.60;;;3.00;;
15254;SDS011;7730;49.610;11.136;2023-03-05T10:22:30;10.52;;;3.22;;
15254;SDS011;7730;49.610;11.136;2023-03-05T10:25:05;9.43;;;2.90;;
15254;SDS011;7730;49.610;11.136;2023-03-05T10:27:42;8.02;;;3.10;;
15254;SDS011;7730;49.610;11.136;2023-03-05T10:30:23;9.30;;;3.17;;
15254;SDS011;7730;49.610;11.136;2023-03-05T10:32:52;7.67;;;2.73;;
15254;SDS011;7730;49.610;11.136;2023-03-05T10:35:32;8.57;;;2.90;;
15254;SDS011;7730;49.610;11.136;2023-03-05T10:38:07;11.73;;;3.30;;
15254;SDS011;7730;49.610;11.136;2023-03-05T10:40:39;10.83;;;3.43;;
15254;SDS011;7730;49.610;11.136;2023-03-05T10:43:12;8.57;;;2.70;;
15254;SDS011;7730;49.610;11.136;2023-03-05T10:45:42;9.70;;;2.80;;
15254;SDS011;7730;49.610;11.136;2023-03-05T10:48:11;9.63;;;3.00;;
15254;SDS011;7730;49.610;11.136;2023-03-05T10:50:43;8.70;;;2.90;;
15254;SDS011;7730;49.610;11.136;2023-03-05T10:53:14;8.55;;;2.92;;
15254;SDS011;7730;49.610;11.136;2023-03-05T10:55:42;7.95;;;2.80;;
15254;SDS011;7730;49.610;11.136;2023-03-05T10:58:10;10.73;;;2.70;;
15254;SDS011;7730;49.610;11.136;2023-03-05T11:00:37;12.00;;;2.80;;
15254;SDS011;7730;49.610;11.136;2023-03-05T11:03:05;11.03;;;3.00;;
15254;SDS011;7730;49.610;11.136;2023-03-05T11:05:39;7.57;;;2.63;;
15254;SDS011;7730;49.610;11.136;2023-03-05T11:11:09;8.97;;;2.50;;
15254;SDS011;7730;49.610;11.136;2023-03-05T11:13:37;8.23;;;2.60;;
15254;SDS011;7730;49.610;11.136;2023-03-05T11:16:05;9.53;;;2.93;;
15254;SDS011;7730;49.610;11.136;2023-03-05T11:18:32;6.77;;;2.43;;
15254;SDS011;7730;49.610;11.136;2023-03-05T11:21:07;8.20;;;2.80;;
15254;SDS011;7730;49.610;11.136;2023-03-05T11:23:34;8.83;;;2.73;;
15254;SDS011;7730;49.610;11.136;2023-03-05T11:26:02;7.20;;;2.50;;
15254;SDS011;7730;49.610;11.136;2023-03-05T11:28:31;9.37;;;2.90;;
15254;SDS011;7730;49.610;11.136;2023-03-05T11:31:00;6.83;;;2.67;;
15254;SDS011;7730;49.610;11.136;2023-03-05T11:33:27;11.83;;;2.87;;
15254;SDS011;7730;49.610;11.136;2023-03-05T11:36:08;11.70;;;2.80;;
15254;SDS011;7730;49.610;11.136;2023-03-05T11:38:43;8.97;;;2.80;;
15254;SDS011;7730;49.610;11.136;2023-03-05T11:41:10;8.85;;;2.50;;
15254;SDS011;7730;49.610;11.136;2023-03-05T11:43:39;7.97;;;2.60;;
15254;SDS011;7730;49.610;11.136;2023-03-05T11:46:08;8.00;;;2.90;;
15254;SDS011;7730;49.610;11.136;2023-03-05T11:48:37;8.73;;;2.90;;
15254;SDS011;7730;49.610;11.136;2023-03-05T11:51:07;7.90;;;2.47;;
15254;SDS011;7730;49.610;11.136;2023-03-05T11:53:34;6.50;;;2.30;;
15254;SDS011;7730;49.610;11.136;2023-03-05T11:56:03;5.73;;;2.10;;
15254;SDS011;7730;49.610;11.136;2023-03-05T11:58:31;6.20;;;2.13;;
15254;SDS011;7730;49.610;11.136;2023-03-05T12:01:02;6.77;;;2.30;;
15254;SDS011;7730;49.610;11.136;2023-03-05T12:03:32;5.37;;;2.20;;
15254;SDS011;7730;49.610;11.136;2023-03-05T12:06:02;3.43;;;1.73;;
15254;SDS011;7730;49.610;11.136;2023-03-05T12:08:32;6.83;;;2.00;;
15254;SDS011;7730;49.610;11.136;2023-03-05T12:11:03;6.53;;;2.00;;
15254;SDS011;7730;49.610;11.136;2023-03-05T12:13:32;4.30;;;1.73;;
15254;SDS011;7730;49.610;11.136;2023-03-05T12:16:10;5.03;;;1.80;;
15254;SDS011;7730;49.610;11.136;2023-03-05T12:18:43;4.67;;;2.03;;
15254;SDS011;7730;49.610;11.136;2023-03-05T12:21:14;5.70;;;1.70;;
15254;SDS011;7730;49.610;11.136;2023-03-05T12:23:45;2.17;;;1.10;;
15254;SDS011;7730;49.610;11.136;2023-03-05T12:26:12;4.87;;;1.70;;
15254;SDS011;7730;49.610;11.136;2023-03-05T12:28:56;4.23;;;1.70;;
15254;SDS011;7730;49.610;11.136;2023-03-05T12:36:57;5.00;;;1.43;;
15254;SDS011;7730;49.610;11.136;2023-03-05T12:47:43;5.20;;;1.93;;
15254;SDS011;7730;49.610;11.136;2023-03-05T12:52:55;3.67;;;1.70;;
15254;SDS011;7730;49.610;11.136;2023-03-05T12:55:22;4.93;;;1.93;;
15254;SDS011;7730;49.610;11.136;2023-03-05T12:57:51;3.60;;;1.80;;
15254;SDS011;7730;49.610;11.136;2023-03-05T13:00:21;3.33;;;1.70;;
15254;SDS011;7730;49.610;11.136;2023-03-05T13:02:51;3.37;;;1.50;;
15254;SDS011;7730;49.610;11.136;2023-03-05T13:05:22;3.93;;;2.00;;
15254;SDS011;7730;49.610;11.136;2023-03-05T13:07:51;5.13;;;1.90;;
15254;SDS011;7730;49.610;11.136;2023-03-05T13:10:24;5.73;;;2.00;;
15254;SDS011;7730;49.610;11.136;2023-03-05T13:12:51;7.03;;;2.10;;
15254;SDS011;7730;49.610;11.136;2023-03-05T13:15:19;5.77;;;2.00;;
15254;SDS011;7730;49.610;11.136;2023-03-05T13:17:51;5.57;;;2.00;;
15254;SDS011;7730;49.610;11.136;2023-03-05T13:20:23;5.63;;;2.30;;
15254;SDS011;7730;49.610;11.136;2023-03-05T13:23:01;3.80;;;2.00;;
15254;SDS011;7730;49.610;11.136;2023-03-05T13:25:29;8.37;;;2.10;;
15254;SDS011;7730;49.610;11.136;2023-03-05T13:28:01;4.97;;;1.83;;
15254;SDS011;7730;49.610;11.136;2023-03-05T13:30:28;7.67;;;1.90;;
15254;SDS011;7730;49.610;11.136;2023-03-05T13:32:57;5.80;;;2.27;;
15254;SDS011;7730;49.610;11.136;2023-03-05T13:35:26;3.90;;;1.77;;
15254;SDS011;7730;49.610;11.136;2023-03-05T13:37:54;4.37;;;2.10;;
15254;SDS011;7730;49.610;11.136;2023-03-05T13:40:22;6.07;;;2.00;;
15254;SDS011;7730;49.610;11.136;2023-03-05T13:42:51;5.87;;;2.00;;
15254;SDS011;7730;49.610;11.136;2023-03-05T13:45:23;6.20;;;2.30;;
15254;SDS011;7730;49.610;11.136;2023-03-05T13:47:51;7.33;;;2.47;;
15254;SDS011;7730;49.610;11.136;2023-03-05T13:50:21;10.40;;;2.50;;
15254;SDS011;7730;49.610;11.136;2023-03-05T13:52:48;8.80;;;2.67;;
15254;SDS011;7730;49.610;11.136;2023-03-05T13:55:15;6.27;;;2.30;;
15254;SDS011;7730;49.610;11.136;2023-03-05T13:57:43;4.57;;;2.30;;
15254;SDS011;7730;49.610;11.136;2023-03-05T14:00:26;7.40;;;2.70;;
15254;SDS011;7730;49.610;11.136;2023-03-05T14:02:54;6.57;;;2.40;;
15254;SDS011;7730;49.610;11.136;2023-03-05T14:05:21;5.03;;;2.30;;
15254;SDS011;7730;49.610;11.136;2023-03-05T14:07:49;5.77;;;2.50;;
15254;SDS011;7730;49.610;11.136;2023-03-05T14:10:27;5.73;;;2.30;;
15254;SDS011;7730;49.610;11.136;2023-03-05T14:12:55;5.87;;;2.20;;
15254;SDS011;7730;49.610;11.136;2023-03-05T14:15:23;6.67;;;2.33;;
15254;SDS011;7730;49.610;11.136;2023-03-05T14:17:52;4.73;;;2.30;;
15254;SDS011;7730;49.610;11.136;2023-03-05T14:20:32;4.73;;;2.30;;
15254;SDS011;7730;49.610;11.136;2023-03-05T14:23:00;5.20;;;2.20;;
15254;SDS011;7730;49.610;11.136;2023-03-05T14:25:31;7.77;;;2.60;;
15254;SDS011;7730;49.610;11.136;2023-03-05T14:27:59;5.63;;;2.50;;
15254;SDS011;7730;49.610;11.136;2023-03-05T14:30:26;7.82;;;2.90;;
15254;SDS011;7730;49.610;11.136;2023-03-05T14:32:57;7.70;;;3.27;;
15254;SDS011;7730;49.610;11.136;2023-03-05T14:35:25;6.00;;;2.70;;
15254;SDS011;7730;49.610;11.136;2023-03-05T14:37:53;8.03;;;3.10;;
15254;SDS011;7730;49.610;11.136;2023-03-05T14:40:21;8.80;;;2.83;;
15254;SDS011;7730;49.610;11.136;2023-03-05T14:42:50;7.37;;;2.60;;
15254;SDS011;7730;49.610;11.136;2023-03-05T14:45:18;6.40;;;2.60;;
15254;SDS011;7730;49.610;11.136;2023-03-05T14:47:45;7.63;;;2.90;;
15254;SDS011;7730;49.610;11.136;2023-03-05T14:50:15;7.50;;;2.97;;
15254;SDS011;7730;49.610;11.136;2023-03-05T14:52:43;6.00;;;2.80;;
15254;SDS011;7730;49.610;11.136;2023-03-05T14:55:12;7.68;;;2.70;;
15254;SDS011;7730;49.610;11.136;2023-03-05T14:57:39;6.60;;;2.70;;
15254;SDS011;7730;49.610;11.136;2023-03-05T15:00:09;7.77;;;3.03;;
15254;SDS011;7730;49.610;11.136;2023-03-05T15:02:40;6.70;;;2.80;;